<?xml version="1.0" encoding="UTF-8" standalone="no" ?>
<gpx xmlns="http://www.topografix.com/GPX/1/1" xmlns:xsi="http://www.w3.org/2001/XMLSchema-instance" xsi:schemaLocation="http://www.topografix.com/GPX/1/1 http://www.topografix.com/GPX/1/1/gpx.xsd" version="1.1" creator="VisuGPX - https://www.visugpx.com">
  <metadata>
    <name>Course à pied le midi</name>
  </metadata>
  <trk>
    <name><![CDATA[Course à pied le midi_1]]></name>
    <trkseg>
      <trkpt lat="48.67136" lon="7.17555">
        <ele>451.6</ele>
        <time>2023-11-16T10:12:01Z</time>
      </trkpt>
      <trkpt lat="48.6715" lon="7.17572">
        <ele>451.5</ele>
        <time>2023-11-16T10:12:08Z</time>
      </trkpt>
      <trkpt lat="48.67164" lon="7.1759">
        <ele>451.4</ele>
        <time>2023-11-16T10:12:14Z</time>
      </trkpt>
      <trkpt lat="48.67176" lon="7.17612">
        <ele>451.3</ele>
        <time>2023-11-16T10:12:21Z</time>
      </trkpt>
      <trkpt lat="48.67188" lon="7.17635">
        <ele>450.9</ele>
        <time>2023-11-16T10:12:29Z</time>
      </trkpt>
      <trkpt lat="48.67198" lon="7.17659">
        <ele>450.1</ele>
        <time>2023-11-16T10:12:36Z</time>
      </trkpt>
      <trkpt lat="48.67201" lon="7.17688">
        <ele>449.6</ele>
        <time>2023-11-16T10:12:43Z</time>
      </trkpt>
      <trkpt lat="48.67196" lon="7.17715">
        <ele>449.7</ele>
        <time>2023-11-16T10:12:50Z</time>
      </trkpt>
      <trkpt lat="48.67192" lon="7.17742">
        <ele>449.3</ele>
        <time>2023-11-16T10:12:56Z</time>
      </trkpt>
      <trkpt lat="48.67206" lon="7.17763">
        <ele>448.2</ele>
        <time>2023-11-16T10:13:02Z</time>
      </trkpt>
      <trkpt lat="48.6722" lon="7.17781">
        <ele>446.8</ele>
        <time>2023-11-16T10:13:09Z</time>
      </trkpt>
      <trkpt lat="48.67236" lon="7.178">
        <ele>445.1</ele>
        <time>2023-11-16T10:13:16Z</time>
      </trkpt>
      <trkpt lat="48.67252" lon="7.17814">
        <ele>443.2</ele>
        <time>2023-11-16T10:13:23Z</time>
      </trkpt>
      <trkpt lat="48.67272" lon="7.17823">
        <ele>440.7</ele>
        <time>2023-11-16T10:13:30Z</time>
      </trkpt>
      <trkpt lat="48.67292" lon="7.17831">
        <ele>437.9</ele>
        <time>2023-11-16T10:13:37Z</time>
      </trkpt>
      <trkpt lat="48.6731" lon="7.17837">
        <ele>435.5</ele>
        <time>2023-11-16T10:13:43Z</time>
      </trkpt>
      <trkpt lat="48.67328" lon="7.17847">
        <ele>433.4</ele>
        <time>2023-11-16T10:13:49Z</time>
      </trkpt>
      <trkpt lat="48.67345" lon="7.17855">
        <ele>431.8</ele>
        <time>2023-11-16T10:13:55Z</time>
      </trkpt>
      <trkpt lat="48.67363" lon="7.17868">
        <ele>430.7</ele>
        <time>2023-11-16T10:14:02Z</time>
      </trkpt>
      <trkpt lat="48.67382" lon="7.17883">
        <ele>429</ele>
        <time>2023-11-16T10:14:09Z</time>
      </trkpt>
      <trkpt lat="48.67398" lon="7.17896">
        <ele>427.5</ele>
        <time>2023-11-16T10:14:15Z</time>
      </trkpt>
      <trkpt lat="48.67416" lon="7.17904">
        <ele>426.4</ele>
        <time>2023-11-16T10:14:21Z</time>
      </trkpt>
      <trkpt lat="48.67434" lon="7.17912">
        <ele>425.4</ele>
        <time>2023-11-16T10:14:27Z</time>
      </trkpt>
      <trkpt lat="48.67451" lon="7.17921">
        <ele>424.7</ele>
        <time>2023-11-16T10:14:33Z</time>
      </trkpt>
      <trkpt lat="48.67472" lon="7.17928">
        <ele>424</ele>
        <time>2023-11-16T10:14:40Z</time>
      </trkpt>
      <trkpt lat="48.6749" lon="7.17928">
        <ele>423.7</ele>
        <time>2023-11-16T10:14:46Z</time>
      </trkpt>
      <trkpt lat="48.67508" lon="7.17924">
        <ele>423.3</ele>
        <time>2023-11-16T10:14:53Z</time>
      </trkpt>
      <trkpt lat="48.67525" lon="7.17911">
        <ele>422.3</ele>
        <time>2023-11-16T10:15:00Z</time>
      </trkpt>
      <trkpt lat="48.6754" lon="7.17895">
        <ele>421</ele>
        <time>2023-11-16T10:15:06Z</time>
      </trkpt>
      <trkpt lat="48.67555" lon="7.17877">
        <ele>419.5</ele>
        <time>2023-11-16T10:15:13Z</time>
      </trkpt>
      <trkpt lat="48.67568" lon="7.17856">
        <ele>417.9</ele>
        <time>2023-11-16T10:15:20Z</time>
      </trkpt>
      <trkpt lat="48.67583" lon="7.1784">
        <ele>416.1</ele>
        <time>2023-11-16T10:15:27Z</time>
      </trkpt>
      <trkpt lat="48.67593" lon="7.17815">
        <ele>413.3</ele>
        <time>2023-11-16T10:15:34Z</time>
      </trkpt>
      <trkpt lat="48.67602" lon="7.17787">
        <ele>409.8</ele>
        <time>2023-11-16T10:15:41Z</time>
      </trkpt>
      <trkpt lat="48.6761" lon="7.17759">
        <ele>407</ele>
        <time>2023-11-16T10:15:48Z</time>
      </trkpt>
      <trkpt lat="48.67624" lon="7.17737">
        <ele>404.8</ele>
        <time>2023-11-16T10:15:55Z</time>
      </trkpt>
      <trkpt lat="48.67639" lon="7.1772">
        <ele>403.3</ele>
        <time>2023-11-16T10:16:01Z</time>
      </trkpt>
      <trkpt lat="48.67658" lon="7.17715">
        <ele>402.7</ele>
        <time>2023-11-16T10:16:07Z</time>
      </trkpt>
      <trkpt lat="48.67676" lon="7.17727">
        <ele>402.6</ele>
        <time>2023-11-16T10:16:13Z</time>
      </trkpt>
      <trkpt lat="48.67692" lon="7.1774">
        <ele>402.6</ele>
        <time>2023-11-16T10:16:19Z</time>
      </trkpt>
      <trkpt lat="48.67708" lon="7.17754">
        <ele>402.7</ele>
        <time>2023-11-16T10:16:25Z</time>
      </trkpt>
      <trkpt lat="48.67723" lon="7.17774">
        <ele>402.7</ele>
        <time>2023-11-16T10:16:32Z</time>
      </trkpt>
      <trkpt lat="48.67738" lon="7.17792">
        <ele>402.6</ele>
        <time>2023-11-16T10:16:38Z</time>
      </trkpt>
      <trkpt lat="48.67754" lon="7.17813">
        <ele>402.3</ele>
        <time>2023-11-16T10:16:45Z</time>
      </trkpt>
      <trkpt lat="48.67768" lon="7.17835">
        <ele>402.2</ele>
        <time>2023-11-16T10:16:52Z</time>
      </trkpt>
      <trkpt lat="48.67782" lon="7.17853">
        <ele>402.2</ele>
        <time>2023-11-16T10:16:58Z</time>
      </trkpt>
      <trkpt lat="48.67796" lon="7.17875">
        <ele>402.4</ele>
        <time>2023-11-16T10:17:05Z</time>
      </trkpt>
      <trkpt lat="48.6781" lon="7.17894">
        <ele>402.6</ele>
        <time>2023-11-16T10:17:11Z</time>
      </trkpt>
      <trkpt lat="48.67825" lon="7.17912">
        <ele>402.5</ele>
        <time>2023-11-16T10:17:17Z</time>
      </trkpt>
      <trkpt lat="48.67841" lon="7.17927">
        <ele>401.9</ele>
        <time>2023-11-16T10:17:23Z</time>
      </trkpt>
      <trkpt lat="48.67857" lon="7.17941">
        <ele>401.1</ele>
        <time>2023-11-16T10:17:29Z</time>
      </trkpt>
      <trkpt lat="48.67875" lon="7.17953">
        <ele>400.4</ele>
        <time>2023-11-16T10:17:35Z</time>
      </trkpt>
      <trkpt lat="48.67895" lon="7.17962">
        <ele>399.7</ele>
        <time>2023-11-16T10:17:41Z</time>
      </trkpt>
      <trkpt lat="48.67916" lon="7.17968">
        <ele>398.8</ele>
        <time>2023-11-16T10:17:47Z</time>
      </trkpt>
      <trkpt lat="48.67934" lon="7.17972">
        <ele>397.4</ele>
        <time>2023-11-16T10:17:53Z</time>
      </trkpt>
      <trkpt lat="48.67954" lon="7.17973">
        <ele>395.6</ele>
        <time>2023-11-16T10:17:59Z</time>
      </trkpt>
      <trkpt lat="48.67974" lon="7.17971">
        <ele>393.9</ele>
        <time>2023-11-16T10:18:05Z</time>
      </trkpt>
      <trkpt lat="48.67993" lon="7.1797">
        <ele>392.2</ele>
        <time>2023-11-16T10:18:11Z</time>
      </trkpt>
      <trkpt lat="48.68013" lon="7.17959">
        <ele>390.5</ele>
        <time>2023-11-16T10:18:17Z</time>
      </trkpt>
      <trkpt lat="48.68033" lon="7.17949">
        <ele>389</ele>
        <time>2023-11-16T10:18:23Z</time>
      </trkpt>
      <trkpt lat="48.68054" lon="7.17941">
        <ele>387.5</ele>
        <time>2023-11-16T10:18:29Z</time>
      </trkpt>
      <trkpt lat="48.68071" lon="7.17955">
        <ele>386.3</ele>
        <time>2023-11-16T10:18:34Z</time>
      </trkpt>
      <trkpt lat="48.68081" lon="7.17979">
        <ele>385.3</ele>
        <time>2023-11-16T10:18:39Z</time>
      </trkpt>
      <trkpt lat="48.68091" lon="7.18006">
        <ele>384.4</ele>
        <time>2023-11-16T10:18:45Z</time>
      </trkpt>
      <trkpt lat="48.68098" lon="7.18034">
        <ele>383.9</ele>
        <time>2023-11-16T10:18:51Z</time>
      </trkpt>
      <trkpt lat="48.68104" lon="7.18061">
        <ele>383.5</ele>
        <time>2023-11-16T10:18:57Z</time>
      </trkpt>
      <trkpt lat="48.68112" lon="7.18086">
        <ele>383.2</ele>
        <time>2023-11-16T10:19:03Z</time>
      </trkpt>
      <trkpt lat="48.68119" lon="7.18113">
        <ele>382.9</ele>
        <time>2023-11-16T10:19:09Z</time>
      </trkpt>
      <trkpt lat="48.68128" lon="7.18138">
        <ele>382.7</ele>
        <time>2023-11-16T10:19:15Z</time>
      </trkpt>
      <trkpt lat="48.68134" lon="7.18166">
        <ele>382.5</ele>
        <time>2023-11-16T10:19:21Z</time>
      </trkpt>
      <trkpt lat="48.6814" lon="7.18194">
        <ele>382.2</ele>
        <time>2023-11-16T10:19:27Z</time>
      </trkpt>
      <trkpt lat="48.68142" lon="7.18223">
        <ele>381.8</ele>
        <time>2023-11-16T10:19:33Z</time>
      </trkpt>
      <trkpt lat="48.68137" lon="7.18251">
        <ele>381.1</ele>
        <time>2023-11-16T10:19:39Z</time>
      </trkpt>
      <trkpt lat="48.68128" lon="7.18275">
        <ele>380.3</ele>
        <time>2023-11-16T10:19:45Z</time>
      </trkpt>
      <trkpt lat="48.68119" lon="7.18303">
        <ele>379</ele>
        <time>2023-11-16T10:19:52Z</time>
      </trkpt>
      <trkpt lat="48.68109" lon="7.1833">
        <ele>377.6</ele>
        <time>2023-11-16T10:19:58Z</time>
      </trkpt>
      <trkpt lat="48.68101" lon="7.18358">
        <ele>375.9</ele>
        <time>2023-11-16T10:20:04Z</time>
      </trkpt>
      <trkpt lat="48.68096" lon="7.18388">
        <ele>374</ele>
        <time>2023-11-16T10:20:10Z</time>
      </trkpt>
      <trkpt lat="48.68088" lon="7.18417">
        <ele>371.9</ele>
        <time>2023-11-16T10:20:16Z</time>
      </trkpt>
      <trkpt lat="48.68087" lon="7.18451">
        <ele>369.3</ele>
        <time>2023-11-16T10:20:28Z</time>
      </trkpt>
      <trkpt lat="48.68085" lon="7.18479">
        <ele>367.1</ele>
        <time>2023-11-16T10:20:36Z</time>
      </trkpt>
      <trkpt lat="48.68086" lon="7.18508">
        <ele>364.8</ele>
        <time>2023-11-16T10:20:43Z</time>
      </trkpt>
      <trkpt lat="48.68083" lon="7.18537">
        <ele>362.5</ele>
        <time>2023-11-16T10:20:51Z</time>
      </trkpt>
      <trkpt lat="48.68086" lon="7.18566">
        <ele>360.3</ele>
        <time>2023-11-16T10:20:58Z</time>
      </trkpt>
      <trkpt lat="48.68092" lon="7.18594">
        <ele>358</ele>
        <time>2023-11-16T10:21:06Z</time>
      </trkpt>
      <trkpt lat="48.68099" lon="7.1862">
        <ele>355.8</ele>
        <time>2023-11-16T10:21:13Z</time>
      </trkpt>
      <trkpt lat="48.68111" lon="7.18643">
        <ele>353.5</ele>
        <time>2023-11-16T10:21:19Z</time>
      </trkpt>
      <trkpt lat="48.68126" lon="7.18663">
        <ele>351.1</ele>
        <time>2023-11-16T10:21:25Z</time>
      </trkpt>
      <trkpt lat="48.68141" lon="7.18683">
        <ele>348.8</ele>
        <time>2023-11-16T10:21:30Z</time>
      </trkpt>
      <trkpt lat="48.68151" lon="7.18706">
        <ele>351.5</ele>
        <time>2023-11-16T10:21:37Z</time>
      </trkpt>
      <trkpt lat="48.68161" lon="7.1873">
        <ele>354.8</ele>
        <time>2023-11-16T10:21:45Z</time>
      </trkpt>
      <trkpt lat="48.68178" lon="7.18748">
        <ele>354.2</ele>
        <time>2023-11-16T10:21:52Z</time>
      </trkpt>
      <trkpt lat="48.68195" lon="7.18765">
        <ele>353.6</ele>
        <time>2023-11-16T10:21:58Z</time>
      </trkpt>
      <trkpt lat="48.68211" lon="7.18785">
        <ele>351.4</ele>
        <time>2023-11-16T10:22:04Z</time>
      </trkpt>
      <trkpt lat="48.68222" lon="7.18808">
        <ele>350.4</ele>
        <time>2023-11-16T10:22:09Z</time>
      </trkpt>
      <trkpt lat="48.6823" lon="7.18839">
        <ele>349.8</ele>
        <time>2023-11-16T10:22:15Z</time>
      </trkpt>
      <trkpt lat="48.6824" lon="7.18859">
        <ele>348.5</ele>
        <time>2023-11-16T10:22:21Z</time>
      </trkpt>
      <trkpt lat="48.68259" lon="7.18865">
        <ele>340.3</ele>
        <time>2023-11-16T10:22:27Z</time>
      </trkpt>
      <trkpt lat="48.68265" lon="7.18869">
        <ele>339</ele>
        <time>2023-11-16T10:22:30Z</time>
      </trkpt>
      <trkpt lat="48.68272" lon="7.1887">
        <ele>336.2</ele>
        <time>2023-11-16T10:22:32Z</time>
      </trkpt>
      <trkpt lat="48.68277" lon="7.18869">
        <ele>336.2</ele>
        <time>2023-11-16T10:24:07Z</time>
      </trkpt>
      <trkpt lat="48.68276" lon="7.18869">
        <ele>337.6</ele>
        <time>2023-11-16T10:24:08Z</time>
      </trkpt>
      <trkpt lat="48.68272" lon="7.18865">
        <ele>340.7</ele>
        <time>2023-11-16T10:24:13Z</time>
      </trkpt>
      <trkpt lat="48.6827" lon="7.18865">
        <ele>343.6</ele>
        <time>2023-11-16T10:24:14Z</time>
      </trkpt>
      <trkpt lat="48.68252" lon="7.18863">
        <ele>354.8</ele>
        <time>2023-11-16T10:24:25Z</time>
      </trkpt>
      <trkpt lat="48.68233" lon="7.18862">
        <ele>363.8</ele>
        <time>2023-11-16T10:24:32Z</time>
      </trkpt>
      <trkpt lat="48.68218" lon="7.1888">
        <ele>372.1</ele>
        <time>2023-11-16T10:24:41Z</time>
      </trkpt>
      <trkpt lat="48.68206" lon="7.18902">
        <ele>373.4</ele>
        <time>2023-11-16T10:24:53Z</time>
      </trkpt>
      <trkpt lat="48.68193" lon="7.18923">
        <ele>374.7</ele>
        <time>2023-11-16T10:25:04Z</time>
      </trkpt>
      <trkpt lat="48.6818" lon="7.18947">
        <ele>376</ele>
        <time>2023-11-16T10:25:13Z</time>
      </trkpt>
      <trkpt lat="48.68168" lon="7.18972">
        <ele>377.4</ele>
        <time>2023-11-16T10:25:20Z</time>
      </trkpt>
      <trkpt lat="48.68158" lon="7.18997">
        <ele>378.8</ele>
        <time>2023-11-16T10:25:28Z</time>
      </trkpt>
      <trkpt lat="48.68141" lon="7.19013">
        <ele>380.1</ele>
        <time>2023-11-16T10:25:37Z</time>
      </trkpt>
      <trkpt lat="48.68129" lon="7.19035">
        <ele>381.4</ele>
        <time>2023-11-16T10:25:45Z</time>
      </trkpt>
      <trkpt lat="48.68114" lon="7.19057">
        <ele>382.8</ele>
        <time>2023-11-16T10:25:52Z</time>
      </trkpt>
      <trkpt lat="48.68097" lon="7.19071">
        <ele>384.2</ele>
        <time>2023-11-16T10:25:58Z</time>
      </trkpt>
      <trkpt lat="48.68076" lon="7.19079">
        <ele>385.6</ele>
        <time>2023-11-16T10:26:05Z</time>
      </trkpt>
      <trkpt lat="48.68056" lon="7.19086">
        <ele>387</ele>
        <time>2023-11-16T10:26:12Z</time>
      </trkpt>
      <trkpt lat="48.68037" lon="7.1909">
        <ele>388.3</ele>
        <time>2023-11-16T10:26:17Z</time>
      </trkpt>
      <trkpt lat="48.68018" lon="7.19094">
        <ele>389.7</ele>
        <time>2023-11-16T10:26:21Z</time>
      </trkpt>
      <trkpt lat="48.67998" lon="7.19102">
        <ele>391</ele>
        <time>2023-11-16T10:26:28Z</time>
      </trkpt>
      <trkpt lat="48.67978" lon="7.19108">
        <ele>392.4</ele>
        <time>2023-11-16T10:26:34Z</time>
      </trkpt>
      <trkpt lat="48.67959" lon="7.19114">
        <ele>393.7</ele>
        <time>2023-11-16T10:26:40Z</time>
      </trkpt>
      <trkpt lat="48.67937" lon="7.19121">
        <ele>395.2</ele>
        <time>2023-11-16T10:26:45Z</time>
      </trkpt>
      <trkpt lat="48.67917" lon="7.19121">
        <ele>397.4</ele>
        <time>2023-11-16T10:26:49Z</time>
      </trkpt>
      <trkpt lat="48.67898" lon="7.1912">
        <ele>398.2</ele>
        <time>2023-11-16T10:26:54Z</time>
      </trkpt>
      <trkpt lat="48.67875" lon="7.19112">
        <ele>400.6</ele>
        <time>2023-11-16T10:27:00Z</time>
      </trkpt>
      <trkpt lat="48.67857" lon="7.19102">
        <ele>401.4</ele>
        <time>2023-11-16T10:27:05Z</time>
      </trkpt>
      <trkpt lat="48.67838" lon="7.19088">
        <ele>400.2</ele>
        <time>2023-11-16T10:27:11Z</time>
      </trkpt>
      <trkpt lat="48.67821" lon="7.19076">
        <ele>394.8</ele>
        <time>2023-11-16T10:27:17Z</time>
      </trkpt>
      <trkpt lat="48.67806" lon="7.19057">
        <ele>391.5</ele>
        <time>2023-11-16T10:27:22Z</time>
      </trkpt>
      <trkpt lat="48.67792" lon="7.19038">
        <ele>387.3</ele>
        <time>2023-11-16T10:27:28Z</time>
      </trkpt>
      <trkpt lat="48.67778" lon="7.19018">
        <ele>383.5</ele>
        <time>2023-11-16T10:27:34Z</time>
      </trkpt>
      <trkpt lat="48.67762" lon="7.18996">
        <ele>380</ele>
        <time>2023-11-16T10:27:40Z</time>
      </trkpt>
      <trkpt lat="48.67751" lon="7.18973">
        <ele>378.1</ele>
        <time>2023-11-16T10:27:46Z</time>
      </trkpt>
      <trkpt lat="48.67742" lon="7.18948">
        <ele>374.9</ele>
        <time>2023-11-16T10:27:52Z</time>
      </trkpt>
      <trkpt lat="48.67735" lon="7.18921">
        <ele>375.2</ele>
        <time>2023-11-16T10:27:58Z</time>
      </trkpt>
      <trkpt lat="48.6773" lon="7.18891">
        <ele>375.1</ele>
        <time>2023-11-16T10:28:04Z</time>
      </trkpt>
      <trkpt lat="48.67727" lon="7.18864">
        <ele>374.6</ele>
        <time>2023-11-16T10:28:09Z</time>
      </trkpt>
      <trkpt lat="48.67729" lon="7.18834">
        <ele>375.9</ele>
        <time>2023-11-16T10:28:14Z</time>
      </trkpt>
      <trkpt lat="48.67733" lon="7.18802">
        <ele>376.7</ele>
        <time>2023-11-16T10:28:19Z</time>
      </trkpt>
      <trkpt lat="48.67732" lon="7.18772">
        <ele>376.7</ele>
        <time>2023-11-16T10:28:24Z</time>
      </trkpt>
      <trkpt lat="48.67727" lon="7.18743">
        <ele>374</ele>
        <time>2023-11-16T10:28:30Z</time>
      </trkpt>
      <trkpt lat="48.67717" lon="7.18718">
        <ele>370.4</ele>
        <time>2023-11-16T10:28:36Z</time>
      </trkpt>
      <trkpt lat="48.67705" lon="7.18696">
        <ele>365.7</ele>
        <time>2023-11-16T10:28:41Z</time>
      </trkpt>
      <trkpt lat="48.67694" lon="7.18673">
        <ele>362.2</ele>
        <time>2023-11-16T10:28:46Z</time>
      </trkpt>
      <trkpt lat="48.67679" lon="7.18653">
        <ele>364.6</ele>
        <time>2023-11-16T10:28:51Z</time>
      </trkpt>
      <trkpt lat="48.67665" lon="7.18634">
        <ele>366</ele>
        <time>2023-11-16T10:28:55Z</time>
      </trkpt>
      <trkpt lat="48.67653" lon="7.18612">
        <ele>367.2</ele>
        <time>2023-11-16T10:29:00Z</time>
      </trkpt>
      <trkpt lat="48.67644" lon="7.18584">
        <ele>368.7</ele>
        <time>2023-11-16T10:29:06Z</time>
      </trkpt>
      <trkpt lat="48.67632" lon="7.18558">
        <ele>370.4</ele>
        <time>2023-11-16T10:29:13Z</time>
      </trkpt>
      <trkpt lat="48.67617" lon="7.18542">
        <ele>371.5</ele>
        <time>2023-11-16T10:29:20Z</time>
      </trkpt>
      <trkpt lat="48.67609" lon="7.1854">
        <ele>372</ele>
        <time>2023-11-16T10:29:26Z</time>
      </trkpt>
      <trkpt lat="48.67591" lon="7.18552">
        <ele>372.6</ele>
        <time>2023-11-16T10:29:34Z</time>
      </trkpt>
      <trkpt lat="48.67569" lon="7.18551">
        <ele>373.7</ele>
        <time>2023-11-16T10:29:39Z</time>
      </trkpt>
      <trkpt lat="48.67551" lon="7.18532">
        <ele>374.3</ele>
        <time>2023-11-16T10:29:45Z</time>
      </trkpt>
      <trkpt lat="48.67537" lon="7.1851">
        <ele>375</ele>
        <time>2023-11-16T10:29:51Z</time>
      </trkpt>
      <trkpt lat="48.67527" lon="7.18487">
        <ele>376.2</ele>
        <time>2023-11-16T10:29:57Z</time>
      </trkpt>
      <trkpt lat="48.67527" lon="7.1846">
        <ele>377</ele>
        <time>2023-11-16T10:30:03Z</time>
      </trkpt>
      <trkpt lat="48.67519" lon="7.18433">
        <ele>377.8</ele>
        <time>2023-11-16T10:30:10Z</time>
      </trkpt>
      <trkpt lat="48.67503" lon="7.18413">
        <ele>378.4</ele>
        <time>2023-11-16T10:30:17Z</time>
      </trkpt>
      <trkpt lat="48.67494" lon="7.18389">
        <ele>379.2</ele>
        <time>2023-11-16T10:30:23Z</time>
      </trkpt>
      <trkpt lat="48.67488" lon="7.18363">
        <ele>379.7</ele>
        <time>2023-11-16T10:30:29Z</time>
      </trkpt>
      <trkpt lat="48.67478" lon="7.18337">
        <ele>380.5</ele>
        <time>2023-11-16T10:30:35Z</time>
      </trkpt>
      <trkpt lat="48.67468" lon="7.18314">
        <ele>381.5</ele>
        <time>2023-11-16T10:30:41Z</time>
      </trkpt>
      <trkpt lat="48.67458" lon="7.18292">
        <ele>382.3</ele>
        <time>2023-11-16T10:30:47Z</time>
      </trkpt>
      <trkpt lat="48.67445" lon="7.18267">
        <ele>383.1</ele>
        <time>2023-11-16T10:30:54Z</time>
      </trkpt>
      <trkpt lat="48.67431" lon="7.18244">
        <ele>384.1</ele>
        <time>2023-11-16T10:31:00Z</time>
      </trkpt>
      <trkpt lat="48.67417" lon="7.1822">
        <ele>384.8</ele>
        <time>2023-11-16T10:31:06Z</time>
      </trkpt>
      <trkpt lat="48.67405" lon="7.18197">
        <ele>385.6</ele>
        <time>2023-11-16T10:31:12Z</time>
      </trkpt>
      <trkpt lat="48.67388" lon="7.18177">
        <ele>386.2</ele>
        <time>2023-11-16T10:31:18Z</time>
      </trkpt>
      <trkpt lat="48.67376" lon="7.18156">
        <ele>387.1</ele>
        <time>2023-11-16T10:31:24Z</time>
      </trkpt>
      <trkpt lat="48.67363" lon="7.18135">
        <ele>387.9</ele>
        <time>2023-11-16T10:31:30Z</time>
      </trkpt>
      <trkpt lat="48.67348" lon="7.18113">
        <ele>388.7</ele>
        <time>2023-11-16T10:31:37Z</time>
      </trkpt>
      <trkpt lat="48.67334" lon="7.18093">
        <ele>389.5</ele>
        <time>2023-11-16T10:31:43Z</time>
      </trkpt>
      <trkpt lat="48.67322" lon="7.18071">
        <ele>391</ele>
        <time>2023-11-16T10:31:49Z</time>
      </trkpt>
      <trkpt lat="48.67308" lon="7.18052">
        <ele>391.9</ele>
        <time>2023-11-16T10:31:55Z</time>
      </trkpt>
      <trkpt lat="48.67293" lon="7.18032">
        <ele>392.6</ele>
        <time>2023-11-16T10:32:06Z</time>
      </trkpt>
      <trkpt lat="48.67275" lon="7.18023">
        <ele>393.3</ele>
        <time>2023-11-16T10:32:13Z</time>
      </trkpt>
      <trkpt lat="48.67255" lon="7.18016">
        <ele>394.2</ele>
        <time>2023-11-16T10:32:19Z</time>
      </trkpt>
      <trkpt lat="48.67235" lon="7.18018">
        <ele>394.8</ele>
        <time>2023-11-16T10:32:27Z</time>
      </trkpt>
      <trkpt lat="48.67218" lon="7.18034">
        <ele>395.6</ele>
        <time>2023-11-16T10:32:35Z</time>
      </trkpt>
      <trkpt lat="48.67202" lon="7.18045">
        <ele>396.2</ele>
        <time>2023-11-16T10:32:41Z</time>
      </trkpt>
      <trkpt lat="48.67182" lon="7.18046">
        <ele>397</ele>
        <time>2023-11-16T10:32:47Z</time>
      </trkpt>
      <trkpt lat="48.67161" lon="7.18043">
        <ele>398.4</ele>
        <time>2023-11-16T10:32:53Z</time>
      </trkpt>
      <trkpt lat="48.67143" lon="7.18043">
        <ele>399.8</ele>
        <time>2023-11-16T10:32:59Z</time>
      </trkpt>
      <trkpt lat="48.67123" lon="7.1804">
        <ele>401.7</ele>
        <time>2023-11-16T10:33:06Z</time>
      </trkpt>
      <trkpt lat="48.67103" lon="7.18035">
        <ele>403.6</ele>
        <time>2023-11-16T10:33:13Z</time>
      </trkpt>
      <trkpt lat="48.67084" lon="7.18029">
        <ele>405.5</ele>
        <time>2023-11-16T10:33:19Z</time>
      </trkpt>
      <trkpt lat="48.67066" lon="7.18019">
        <ele>407</ele>
        <time>2023-11-16T10:33:25Z</time>
      </trkpt>
      <trkpt lat="48.67051" lon="7.18001">
        <ele>407.5</ele>
        <time>2023-11-16T10:33:32Z</time>
      </trkpt>
      <trkpt lat="48.67035" lon="7.17984">
        <ele>407.1</ele>
        <time>2023-11-16T10:33:38Z</time>
      </trkpt>
      <trkpt lat="48.67021" lon="7.17968">
        <ele>407.2</ele>
        <time>2023-11-16T10:33:44Z</time>
      </trkpt>
      <trkpt lat="48.67002" lon="7.17952">
        <ele>408</ele>
        <time>2023-11-16T10:33:50Z</time>
      </trkpt>
      <trkpt lat="48.66987" lon="7.1793">
        <ele>409.1</ele>
        <time>2023-11-16T10:33:56Z</time>
      </trkpt>
      <trkpt lat="48.66972" lon="7.1791">
        <ele>410.1</ele>
        <time>2023-11-16T10:34:02Z</time>
      </trkpt>
      <trkpt lat="48.66955" lon="7.1789">
        <ele>411.4</ele>
        <time>2023-11-16T10:34:08Z</time>
      </trkpt>
      <trkpt lat="48.66942" lon="7.17864">
        <ele>413</ele>
        <time>2023-11-16T10:34:14Z</time>
      </trkpt>
      <trkpt lat="48.66932" lon="7.17841">
        <ele>413.5</ele>
        <time>2023-11-16T10:34:19Z</time>
      </trkpt>
      <trkpt lat="48.66924" lon="7.17816">
        <ele>413.7</ele>
        <time>2023-11-16T10:34:24Z</time>
      </trkpt>
      <trkpt lat="48.66912" lon="7.17793">
        <ele>413.8</ele>
        <time>2023-11-16T10:34:29Z</time>
      </trkpt>
      <trkpt lat="48.66903" lon="7.17769">
        <ele>413.9</ele>
        <time>2023-11-16T10:34:34Z</time>
      </trkpt>
      <trkpt lat="48.66891" lon="7.17747">
        <ele>414.2</ele>
        <time>2023-11-16T10:34:39Z</time>
      </trkpt>
      <trkpt lat="48.66879" lon="7.17722">
        <ele>414.7</ele>
        <time>2023-11-16T10:34:45Z</time>
      </trkpt>
      <trkpt lat="48.66871" lon="7.17693">
        <ele>416.2</ele>
        <time>2023-11-16T10:34:52Z</time>
      </trkpt>
      <trkpt lat="48.66864" lon="7.17667">
        <ele>417.7</ele>
        <time>2023-11-16T10:34:58Z</time>
      </trkpt>
      <trkpt lat="48.66856" lon="7.17639">
        <ele>418.8</ele>
        <time>2023-11-16T10:35:04Z</time>
      </trkpt>
      <trkpt lat="48.66846" lon="7.17612">
        <ele>419.3</ele>
        <time>2023-11-16T10:35:09Z</time>
      </trkpt>
      <trkpt lat="48.66835" lon="7.17586">
        <ele>419.4</ele>
        <time>2023-11-16T10:35:15Z</time>
      </trkpt>
      <trkpt lat="48.66824" lon="7.17561">
        <ele>419.3</ele>
        <time>2023-11-16T10:35:21Z</time>
      </trkpt>
      <trkpt lat="48.66817" lon="7.17531">
        <ele>416.4</ele>
        <time>2023-11-16T10:35:28Z</time>
      </trkpt>
      <trkpt lat="48.66815" lon="7.17525">
        <ele>415.2</ele>
        <time>2023-11-16T10:35:33Z</time>
      </trkpt>
      <trkpt lat="48.66815" lon="7.17528">
        <ele>414.8</ele>
        <time>2023-11-16T10:35:35Z</time>
      </trkpt>
      <trkpt lat="48.66817" lon="7.17537">
        <ele>412.5</ele>
        <time>2023-11-16T10:35:39Z</time>
      </trkpt>
      <trkpt lat="48.66828" lon="7.17558">
        <ele>409.2</ele>
        <time>2023-11-16T10:35:46Z</time>
      </trkpt>
      <trkpt lat="48.66833" lon="7.17587">
        <ele>405.1</ele>
        <time>2023-11-16T10:35:52Z</time>
      </trkpt>
      <trkpt lat="48.66844" lon="7.17614">
        <ele>401.8</ele>
        <time>2023-11-16T10:35:57Z</time>
      </trkpt>
      <trkpt lat="48.6685" lon="7.17641">
        <ele>399.7</ele>
        <time>2023-11-16T10:36:01Z</time>
      </trkpt>
      <trkpt lat="48.66853" lon="7.17669">
        <ele>397</ele>
        <time>2023-11-16T10:36:05Z</time>
      </trkpt>
      <trkpt lat="48.66858" lon="7.17697">
        <ele>394.3</ele>
        <time>2023-11-16T10:36:09Z</time>
      </trkpt>
      <trkpt lat="48.66855" lon="7.17727">
        <ele>391.5</ele>
        <time>2023-11-16T10:36:13Z</time>
      </trkpt>
      <trkpt lat="48.66856" lon="7.17754">
        <ele>389</ele>
        <time>2023-11-16T10:36:18Z</time>
      </trkpt>
      <trkpt lat="48.66858" lon="7.17782">
        <ele>386.9</ele>
        <time>2023-11-16T10:36:23Z</time>
      </trkpt>
      <trkpt lat="48.66864" lon="7.17812">
        <ele>384.9</ele>
        <time>2023-11-16T10:36:29Z</time>
      </trkpt>
      <trkpt lat="48.66874" lon="7.17841">
        <ele>382.9</ele>
        <time>2023-11-16T10:36:35Z</time>
      </trkpt>
      <trkpt lat="48.66889" lon="7.17864">
        <ele>381.4</ele>
        <time>2023-11-16T10:36:40Z</time>
      </trkpt>
      <trkpt lat="48.66897" lon="7.17891">
        <ele>379.4</ele>
        <time>2023-11-16T10:36:46Z</time>
      </trkpt>
      <trkpt lat="48.66902" lon="7.17922">
        <ele>376.3</ele>
        <time>2023-11-16T10:36:51Z</time>
      </trkpt>
      <trkpt lat="48.66907" lon="7.17949">
        <ele>373.8</ele>
        <time>2023-11-16T10:36:56Z</time>
      </trkpt>
      <trkpt lat="48.66915" lon="7.17979">
        <ele>371.2</ele>
        <time>2023-11-16T10:37:02Z</time>
      </trkpt>
      <trkpt lat="48.6692" lon="7.18012">
        <ele>368.6</ele>
        <time>2023-11-16T10:37:10Z</time>
      </trkpt>
      <trkpt lat="48.66935" lon="7.18029">
        <ele>366.7</ele>
        <time>2023-11-16T10:37:16Z</time>
      </trkpt>
      <trkpt lat="48.66942" lon="7.18059">
        <ele>364</ele>
        <time>2023-11-16T10:37:21Z</time>
      </trkpt>
      <trkpt lat="48.66957" lon="7.18081">
        <ele>360.7</ele>
        <time>2023-11-16T10:37:27Z</time>
      </trkpt>
      <trkpt lat="48.66974" lon="7.18101">
        <ele>357.3</ele>
        <time>2023-11-16T10:37:32Z</time>
      </trkpt>
      <trkpt lat="48.66987" lon="7.18119">
        <ele>354.5</ele>
        <time>2023-11-16T10:37:37Z</time>
      </trkpt>
      <trkpt lat="48.67005" lon="7.18136">
        <ele>351.3</ele>
        <time>2023-11-16T10:37:43Z</time>
      </trkpt>
      <trkpt lat="48.67021" lon="7.18157">
        <ele>347.7</ele>
        <time>2023-11-16T10:37:50Z</time>
      </trkpt>
      <trkpt lat="48.67036" lon="7.18177">
        <ele>344.2</ele>
        <time>2023-11-16T10:37:56Z</time>
      </trkpt>
      <trkpt lat="48.67052" lon="7.18193">
        <ele>341.4</ele>
        <time>2023-11-16T10:38:01Z</time>
      </trkpt>
      <trkpt lat="48.67065" lon="7.18214">
        <ele>338.6</ele>
        <time>2023-11-16T10:38:06Z</time>
      </trkpt>
      <trkpt lat="48.6708" lon="7.18229">
        <ele>336.1</ele>
        <time>2023-11-16T10:38:12Z</time>
      </trkpt>
      <trkpt lat="48.67094" lon="7.18246">
        <ele>333.5</ele>
        <time>2023-11-16T10:38:17Z</time>
      </trkpt>
      <trkpt lat="48.67109" lon="7.18264">
        <ele>330.6</ele>
        <time>2023-11-16T10:38:22Z</time>
      </trkpt>
      <trkpt lat="48.67114" lon="7.18292">
        <ele>327.5</ele>
        <time>2023-11-16T10:38:27Z</time>
      </trkpt>
      <trkpt lat="48.67121" lon="7.18317">
        <ele>324.2</ele>
        <time>2023-11-16T10:38:32Z</time>
      </trkpt>
      <trkpt lat="48.67138" lon="7.18333">
        <ele>320.7</ele>
        <time>2023-11-16T10:38:37Z</time>
      </trkpt>
      <trkpt lat="48.67157" lon="7.18339">
        <ele>318.2</ele>
        <time>2023-11-16T10:38:42Z</time>
      </trkpt>
      <trkpt lat="48.67176" lon="7.18343">
        <ele>316.3</ele>
        <time>2023-11-16T10:38:47Z</time>
      </trkpt>
      <trkpt lat="48.67196" lon="7.18356">
        <ele>314.8</ele>
        <time>2023-11-16T10:38:52Z</time>
      </trkpt>
      <trkpt lat="48.67209" lon="7.18381">
        <ele>313.3</ele>
        <time>2023-11-16T10:38:58Z</time>
      </trkpt>
      <trkpt lat="48.67224" lon="7.18401">
        <ele>311</ele>
        <time>2023-11-16T10:39:04Z</time>
      </trkpt>
      <trkpt lat="48.6724" lon="7.18421">
        <ele>308.6</ele>
        <time>2023-11-16T10:39:10Z</time>
      </trkpt>
      <trkpt lat="48.67259" lon="7.18434">
        <ele>307.2</ele>
        <time>2023-11-16T10:39:16Z</time>
      </trkpt>
      <trkpt lat="48.67277" lon="7.18446">
        <ele>306.7</ele>
        <time>2023-11-16T10:39:22Z</time>
      </trkpt>
      <trkpt lat="48.67295" lon="7.18456">
        <ele>306.3</ele>
        <time>2023-11-16T10:39:28Z</time>
      </trkpt>
      <trkpt lat="48.67309" lon="7.18475">
        <ele>305.1</ele>
        <time>2023-11-16T10:39:34Z</time>
      </trkpt>
      <trkpt lat="48.67326" lon="7.18494">
        <ele>303</ele>
        <time>2023-11-16T10:39:40Z</time>
      </trkpt>
      <trkpt lat="48.67343" lon="7.18513">
        <ele>301.3</ele>
        <time>2023-11-16T10:39:45Z</time>
      </trkpt>
      <trkpt lat="48.67358" lon="7.18534">
        <ele>299.8</ele>
        <time>2023-11-16T10:39:51Z</time>
      </trkpt>
      <trkpt lat="48.6737" lon="7.18555">
        <ele>298.4</ele>
        <time>2023-11-16T10:39:56Z</time>
      </trkpt>
      <trkpt lat="48.67385" lon="7.18579">
        <ele>297</ele>
        <time>2023-11-16T10:40:02Z</time>
      </trkpt>
      <trkpt lat="48.67396" lon="7.186">
        <ele>295.7</ele>
        <time>2023-11-16T10:40:07Z</time>
      </trkpt>
      <trkpt lat="48.67407" lon="7.18623">
        <ele>294.4</ele>
        <time>2023-11-16T10:40:12Z</time>
      </trkpt>
      <trkpt lat="48.6742" lon="7.18651">
        <ele>293.1</ele>
        <time>2023-11-16T10:40:18Z</time>
      </trkpt>
      <trkpt lat="48.67431" lon="7.18677">
        <ele>292</ele>
        <time>2023-11-16T10:40:23Z</time>
      </trkpt>
      <trkpt lat="48.67442" lon="7.187">
        <ele>291.1</ele>
        <time>2023-11-16T10:40:28Z</time>
      </trkpt>
      <trkpt lat="48.67448" lon="7.18732">
        <ele>290.1</ele>
        <time>2023-11-16T10:40:34Z</time>
      </trkpt>
      <trkpt lat="48.67454" lon="7.18764">
        <ele>289.1</ele>
        <time>2023-11-16T10:40:40Z</time>
      </trkpt>
      <trkpt lat="48.67466" lon="7.1879">
        <ele>288.6</ele>
        <time>2023-11-16T10:40:46Z</time>
      </trkpt>
      <trkpt lat="48.67474" lon="7.18817">
        <ele>288</ele>
        <time>2023-11-16T10:40:52Z</time>
      </trkpt>
      <trkpt lat="48.67482" lon="7.18844">
        <ele>287.1</ele>
        <time>2023-11-16T10:40:58Z</time>
      </trkpt>
      <trkpt lat="48.67485" lon="7.18873">
        <ele>286.1</ele>
        <time>2023-11-16T10:41:04Z</time>
      </trkpt>
      <trkpt lat="48.67484" lon="7.18901">
        <ele>285.1</ele>
        <time>2023-11-16T10:41:10Z</time>
      </trkpt>
      <trkpt lat="48.67485" lon="7.1893">
        <ele>284.4</ele>
        <time>2023-11-16T10:41:16Z</time>
      </trkpt>
      <trkpt lat="48.67485" lon="7.1896">
        <ele>284.2</ele>
        <time>2023-11-16T10:41:22Z</time>
      </trkpt>
      <trkpt lat="48.67484" lon="7.18989">
        <ele>284.5</ele>
        <time>2023-11-16T10:41:27Z</time>
      </trkpt>
      <trkpt lat="48.6749" lon="7.19017">
        <ele>284.8</ele>
        <time>2023-11-16T10:41:34Z</time>
      </trkpt>
      <trkpt lat="48.6749" lon="7.19047">
        <ele>283.9</ele>
        <time>2023-11-16T10:41:40Z</time>
      </trkpt>
      <trkpt lat="48.6749" lon="7.19074">
        <ele>282.8</ele>
        <time>2023-11-16T10:41:45Z</time>
      </trkpt>
      <trkpt lat="48.67488" lon="7.19103">
        <ele>282.3</ele>
        <time>2023-11-16T10:41:50Z</time>
      </trkpt>
      <trkpt lat="48.6748" lon="7.1913">
        <ele>282.4</ele>
        <time>2023-11-16T10:41:56Z</time>
      </trkpt>
      <trkpt lat="48.67468" lon="7.19154">
        <ele>282.5</ele>
        <time>2023-11-16T10:42:03Z</time>
      </trkpt>
      <trkpt lat="48.67455" lon="7.1918">
        <ele>281.2</ele>
        <time>2023-11-16T10:42:10Z</time>
      </trkpt>
      <trkpt lat="48.67442" lon="7.19206">
        <ele>279.7</ele>
        <time>2023-11-16T10:42:16Z</time>
      </trkpt>
      <trkpt lat="48.67434" lon="7.19233">
        <ele>278.2</ele>
        <time>2023-11-16T10:42:21Z</time>
      </trkpt>
      <trkpt lat="48.6743" lon="7.19264">
        <ele>276.2</ele>
        <time>2023-11-16T10:42:27Z</time>
      </trkpt>
      <trkpt lat="48.67426" lon="7.19295">
        <ele>274.3</ele>
        <time>2023-11-16T10:42:33Z</time>
      </trkpt>
      <trkpt lat="48.67426" lon="7.19326">
        <ele>272.2</ele>
        <time>2023-11-16T10:42:39Z</time>
      </trkpt>
      <trkpt lat="48.67426" lon="7.19354">
        <ele>270.3</ele>
        <time>2023-11-16T10:42:44Z</time>
      </trkpt>
      <trkpt lat="48.67425" lon="7.19386">
        <ele>268.3</ele>
        <time>2023-11-16T10:42:50Z</time>
      </trkpt>
      <trkpt lat="48.67426" lon="7.19414">
        <ele>266.8</ele>
        <time>2023-11-16T10:42:55Z</time>
      </trkpt>
      <trkpt lat="48.67427" lon="7.19446">
        <ele>265.8</ele>
        <time>2023-11-16T10:43:01Z</time>
      </trkpt>
      <trkpt lat="48.67427" lon="7.19479">
        <ele>265</ele>
        <time>2023-11-16T10:43:07Z</time>
      </trkpt>
      <trkpt lat="48.67436" lon="7.19506">
        <ele>262.9</ele>
        <time>2023-11-16T10:43:13Z</time>
      </trkpt>
      <trkpt lat="48.67448" lon="7.19531">
        <ele>261</ele>
        <time>2023-11-16T10:43:19Z</time>
      </trkpt>
      <trkpt lat="48.67456" lon="7.19555">
        <ele>259.2</ele>
        <time>2023-11-16T10:43:25Z</time>
      </trkpt>
      <trkpt lat="48.6746" lon="7.19587">
        <ele>257.4</ele>
        <time>2023-11-16T10:43:31Z</time>
      </trkpt>
      <trkpt lat="48.6746" lon="7.19617">
        <ele>256.6</ele>
        <time>2023-11-16T10:43:37Z</time>
      </trkpt>
      <trkpt lat="48.67462" lon="7.19645">
        <ele>256.6</ele>
        <time>2023-11-16T10:43:43Z</time>
      </trkpt>
      <trkpt lat="48.67455" lon="7.19671">
        <ele>256.8</ele>
        <time>2023-11-16T10:43:51Z</time>
      </trkpt>
      <trkpt lat="48.67451" lon="7.19699">
        <ele>257.3</ele>
        <time>2023-11-16T10:43:59Z</time>
      </trkpt>
      <trkpt lat="48.67445" lon="7.19726">
        <ele>258</ele>
        <time>2023-11-16T10:44:05Z</time>
      </trkpt>
      <trkpt lat="48.67431" lon="7.19742">
        <ele>259.2</ele>
        <time>2023-11-16T10:44:16Z</time>
      </trkpt>
      <trkpt lat="48.67411" lon="7.19738">
        <ele>261</ele>
        <time>2023-11-16T10:44:23Z</time>
      </trkpt>
      <trkpt lat="48.67393" lon="7.19729">
        <ele>261.7</ele>
        <time>2023-11-16T10:44:29Z</time>
      </trkpt>
      <trkpt lat="48.67374" lon="7.19721">
        <ele>261.7</ele>
        <time>2023-11-16T10:44:35Z</time>
      </trkpt>
      <trkpt lat="48.67355" lon="7.19718">
        <ele>261.6</ele>
        <time>2023-11-16T10:44:47Z</time>
      </trkpt>
      <trkpt lat="48.67342" lon="7.19717">
        <ele>261.7</ele>
        <time>2023-11-16T10:44:52Z</time>
      </trkpt>
      <trkpt lat="48.67323" lon="7.19716">
        <ele>261.9</ele>
        <time>2023-11-16T10:45:00Z</time>
      </trkpt>
      <trkpt lat="48.67304" lon="7.19717">
        <ele>262.2</ele>
        <time>2023-11-16T10:45:08Z</time>
      </trkpt>
      <trkpt lat="48.67286" lon="7.19714">
        <ele>262.4</ele>
        <time>2023-11-16T10:45:15Z</time>
      </trkpt>
      <trkpt lat="48.67265" lon="7.19712">
        <ele>262.9</ele>
        <time>2023-11-16T10:45:22Z</time>
      </trkpt>
      <trkpt lat="48.67245" lon="7.1971">
        <ele>263.2</ele>
        <time>2023-11-16T10:45:28Z</time>
      </trkpt>
      <trkpt lat="48.67225" lon="7.19705">
        <ele>263.3</ele>
        <time>2023-11-16T10:45:34Z</time>
      </trkpt>
      <trkpt lat="48.67206" lon="7.19705">
        <ele>263.4</ele>
        <time>2023-11-16T10:45:40Z</time>
      </trkpt>
      <trkpt lat="48.67185" lon="7.19706">
        <ele>263.3</ele>
        <time>2023-11-16T10:45:46Z</time>
      </trkpt>
      <trkpt lat="48.67165" lon="7.19704">
        <ele>263.5</ele>
        <time>2023-11-16T10:45:52Z</time>
      </trkpt>
      <trkpt lat="48.67146" lon="7.19698">
        <ele>264</ele>
        <time>2023-11-16T10:45:58Z</time>
      </trkpt>
      <trkpt lat="48.67126" lon="7.19697">
        <ele>264.4</ele>
        <time>2023-11-16T10:46:04Z</time>
      </trkpt>
      <trkpt lat="48.67107" lon="7.19691">
        <ele>264.6</ele>
        <time>2023-11-16T10:46:12Z</time>
      </trkpt>
      <trkpt lat="48.67087" lon="7.19682">
        <ele>265</ele>
        <time>2023-11-16T10:46:19Z</time>
      </trkpt>
      <trkpt lat="48.67069" lon="7.19674">
        <ele>265.2</ele>
        <time>2023-11-16T10:46:26Z</time>
      </trkpt>
      <trkpt lat="48.67049" lon="7.19672">
        <ele>265.3</ele>
        <time>2023-11-16T10:46:34Z</time>
      </trkpt>
      <trkpt lat="48.67031" lon="7.19669">
        <ele>265.4</ele>
        <time>2023-11-16T10:46:41Z</time>
      </trkpt>
      <trkpt lat="48.67015" lon="7.19668">
        <ele>265.4</ele>
        <time>2023-11-16T10:46:50Z</time>
      </trkpt>
      <trkpt lat="48.66996" lon="7.19668">
        <ele>265.6</ele>
        <time>2023-11-16T10:46:59Z</time>
      </trkpt>
      <trkpt lat="48.66976" lon="7.19667">
        <ele>265.9</ele>
        <time>2023-11-16T10:47:08Z</time>
      </trkpt>
      <trkpt lat="48.66957" lon="7.1966">
        <ele>266.4</ele>
        <time>2023-11-16T10:47:16Z</time>
      </trkpt>
      <trkpt lat="48.66935" lon="7.19665">
        <ele>266.7</ele>
        <time>2023-11-16T10:47:22Z</time>
      </trkpt>
      <trkpt lat="48.66916" lon="7.19675">
        <ele>267</ele>
        <time>2023-11-16T10:47:29Z</time>
      </trkpt>
      <trkpt lat="48.66899" lon="7.19688">
        <ele>267.1</ele>
        <time>2023-11-16T10:47:35Z</time>
      </trkpt>
      <trkpt lat="48.66879" lon="7.19691">
        <ele>267.3</ele>
        <time>2023-11-16T10:47:41Z</time>
      </trkpt>
      <trkpt lat="48.66858" lon="7.19692">
        <ele>267.4</ele>
        <time>2023-11-16T10:47:48Z</time>
      </trkpt>
      <trkpt lat="48.6684" lon="7.19694">
        <ele>267.7</ele>
        <time>2023-11-16T10:47:54Z</time>
      </trkpt>
      <trkpt lat="48.66819" lon="7.19698">
        <ele>268.4</ele>
        <time>2023-11-16T10:48:00Z</time>
      </trkpt>
      <trkpt lat="48.66798" lon="7.19691">
        <ele>269.7</ele>
        <time>2023-11-16T10:48:07Z</time>
      </trkpt>
      <trkpt lat="48.66778" lon="7.19685">
        <ele>270.3</ele>
        <time>2023-11-16T10:48:12Z</time>
      </trkpt>
      <trkpt lat="48.66757" lon="7.19677">
        <ele>270.9</ele>
        <time>2023-11-16T10:48:18Z</time>
      </trkpt>
      <trkpt lat="48.66738" lon="7.19672">
        <ele>271.1</ele>
        <time>2023-11-16T10:48:23Z</time>
      </trkpt>
      <trkpt lat="48.66719" lon="7.19659">
        <ele>271</ele>
        <time>2023-11-16T10:48:29Z</time>
      </trkpt>
      <trkpt lat="48.667" lon="7.19653">
        <ele>271.4</ele>
        <time>2023-11-16T10:48:36Z</time>
      </trkpt>
      <trkpt lat="48.66681" lon="7.19651">
        <ele>272.2</ele>
        <time>2023-11-16T10:48:45Z</time>
      </trkpt>
      <trkpt lat="48.66663" lon="7.19651">
        <ele>273.4</ele>
        <time>2023-11-16T10:48:54Z</time>
      </trkpt>
      <trkpt lat="48.66653" lon="7.19655">
        <ele>274.6</ele>
        <time>2023-11-16T10:49:00Z</time>
      </trkpt>
      <trkpt lat="48.66635" lon="7.19645">
        <ele>275.4</ele>
        <time>2023-11-16T10:49:08Z</time>
      </trkpt>
      <trkpt lat="48.66618" lon="7.19639">
        <ele>276.4</ele>
        <time>2023-11-16T10:49:16Z</time>
      </trkpt>
      <trkpt lat="48.66598" lon="7.1963">
        <ele>277.6</ele>
        <time>2023-11-16T10:49:24Z</time>
      </trkpt>
      <trkpt lat="48.66578" lon="7.19625">
        <ele>278.3</ele>
        <time>2023-11-16T10:49:32Z</time>
      </trkpt>
      <trkpt lat="48.66559" lon="7.19616">
        <ele>278.7</ele>
        <time>2023-11-16T10:49:40Z</time>
      </trkpt>
      <trkpt lat="48.66542" lon="7.19604">
        <ele>279</ele>
        <time>2023-11-16T10:49:49Z</time>
      </trkpt>
      <trkpt lat="48.66524" lon="7.196">
        <ele>279.2</ele>
        <time>2023-11-16T10:49:56Z</time>
      </trkpt>
      <trkpt lat="48.66505" lon="7.196">
        <ele>279.3</ele>
        <time>2023-11-16T10:50:04Z</time>
      </trkpt>
      <trkpt lat="48.66485" lon="7.19595">
        <ele>279.4</ele>
        <time>2023-11-16T10:50:12Z</time>
      </trkpt>
      <trkpt lat="48.66465" lon="7.19592">
        <ele>279.6</ele>
        <time>2023-11-16T10:50:21Z</time>
      </trkpt>
      <trkpt lat="48.66445" lon="7.19592">
        <ele>279.7</ele>
        <time>2023-11-16T10:50:27Z</time>
      </trkpt>
      <trkpt lat="48.66426" lon="7.19594">
        <ele>279.9</ele>
        <time>2023-11-16T10:50:33Z</time>
      </trkpt>
      <trkpt lat="48.66408" lon="7.19598">
        <ele>280</ele>
        <time>2023-11-16T10:50:39Z</time>
      </trkpt>
      <trkpt lat="48.6639" lon="7.19602">
        <ele>280.2</ele>
        <time>2023-11-16T10:50:44Z</time>
      </trkpt>
      <trkpt lat="48.66372" lon="7.19609">
        <ele>280.3</ele>
        <time>2023-11-16T10:50:50Z</time>
      </trkpt>
      <trkpt lat="48.66353" lon="7.19616">
        <ele>280.5</ele>
        <time>2023-11-16T10:50:56Z</time>
      </trkpt>
      <trkpt lat="48.66336" lon="7.19628">
        <ele>280.8</ele>
        <time>2023-11-16T10:51:03Z</time>
      </trkpt>
      <trkpt lat="48.66322" lon="7.19649">
        <ele>281.1</ele>
        <time>2023-11-16T10:51:10Z</time>
      </trkpt>
      <trkpt lat="48.6631" lon="7.19673">
        <ele>281.3</ele>
        <time>2023-11-16T10:51:14Z</time>
      </trkpt>
      <trkpt lat="48.66304" lon="7.19701">
        <ele>281.6</ele>
        <time>2023-11-16T10:51:20Z</time>
      </trkpt>
      <trkpt lat="48.66306" lon="7.19732">
        <ele>281.7</ele>
        <time>2023-11-16T10:51:27Z</time>
      </trkpt>
      <trkpt lat="48.66307" lon="7.1976">
        <ele>281.8</ele>
        <time>2023-11-16T10:51:33Z</time>
      </trkpt>
      <trkpt lat="48.66309" lon="7.19788">
        <ele>281.8</ele>
        <time>2023-11-16T10:51:39Z</time>
      </trkpt>
      <trkpt lat="48.66312" lon="7.19818">
        <ele>281.9</ele>
        <time>2023-11-16T10:51:47Z</time>
      </trkpt>
      <trkpt lat="48.66303" lon="7.19846">
        <ele>281.9</ele>
        <time>2023-11-16T10:51:53Z</time>
      </trkpt>
      <trkpt lat="48.66295" lon="7.19871">
        <ele>281.9</ele>
        <time>2023-11-16T10:51:59Z</time>
      </trkpt>
      <trkpt lat="48.66281" lon="7.19893">
        <ele>282.2</ele>
        <time>2023-11-16T10:52:06Z</time>
      </trkpt>
      <trkpt lat="48.66268" lon="7.19916">
        <ele>282.5</ele>
        <time>2023-11-16T10:52:13Z</time>
      </trkpt>
      <trkpt lat="48.66253" lon="7.19931">
        <ele>282.7</ele>
        <time>2023-11-16T10:52:20Z</time>
      </trkpt>
      <trkpt lat="48.66237" lon="7.19943">
        <ele>282.9</ele>
        <time>2023-11-16T10:52:27Z</time>
      </trkpt>
      <trkpt lat="48.66221" lon="7.19955">
        <ele>283.1</ele>
        <time>2023-11-16T10:52:33Z</time>
      </trkpt>
      <trkpt lat="48.66201" lon="7.19966">
        <ele>283.4</ele>
        <time>2023-11-16T10:52:40Z</time>
      </trkpt>
      <trkpt lat="48.66182" lon="7.19975">
        <ele>283.8</ele>
        <time>2023-11-16T10:52:45Z</time>
      </trkpt>
      <trkpt lat="48.6616" lon="7.1998">
        <ele>284.1</ele>
        <time>2023-11-16T10:52:50Z</time>
      </trkpt>
      <trkpt lat="48.66143" lon="7.1999">
        <ele>284.2</ele>
        <time>2023-11-16T10:52:55Z</time>
      </trkpt>
      <trkpt lat="48.66134" lon="7.20003">
        <ele>284.3</ele>
        <time>2023-11-16T10:53:00Z</time>
      </trkpt>
      <trkpt lat="48.66113" lon="7.20005">
        <ele>284.6</ele>
        <time>2023-11-16T10:53:06Z</time>
      </trkpt>
      <trkpt lat="48.66092" lon="7.20002">
        <ele>285.1</ele>
        <time>2023-11-16T10:53:11Z</time>
      </trkpt>
      <trkpt lat="48.66072" lon="7.19994">
        <ele>285.5</ele>
        <time>2023-11-16T10:53:17Z</time>
      </trkpt>
      <trkpt lat="48.66052" lon="7.19987">
        <ele>285.8</ele>
        <time>2023-11-16T10:53:22Z</time>
      </trkpt>
      <trkpt lat="48.66034" lon="7.19981">
        <ele>286.2</ele>
        <time>2023-11-16T10:53:28Z</time>
      </trkpt>
      <trkpt lat="48.66016" lon="7.19969">
        <ele>286.5</ele>
        <time>2023-11-16T10:53:35Z</time>
      </trkpt>
      <trkpt lat="48.66" lon="7.19953">
        <ele>286.8</ele>
        <time>2023-11-16T10:53:42Z</time>
      </trkpt>
      <trkpt lat="48.65989" lon="7.19929">
        <ele>287.1</ele>
        <time>2023-11-16T10:53:48Z</time>
      </trkpt>
      <trkpt lat="48.65982" lon="7.19901">
        <ele>287.3</ele>
        <time>2023-11-16T10:53:54Z</time>
      </trkpt>
      <trkpt lat="48.65974" lon="7.19875">
        <ele>287.5</ele>
        <time>2023-11-16T10:54:00Z</time>
      </trkpt>
      <trkpt lat="48.65963" lon="7.19852">
        <ele>287.8</ele>
        <time>2023-11-16T10:54:06Z</time>
      </trkpt>
      <trkpt lat="48.65954" lon="7.19825">
        <ele>288.1</ele>
        <time>2023-11-16T10:54:13Z</time>
      </trkpt>
      <trkpt lat="48.65942" lon="7.19802">
        <ele>288.7</ele>
        <time>2023-11-16T10:54:20Z</time>
      </trkpt>
      <trkpt lat="48.65923" lon="7.19792">
        <ele>290.5</ele>
        <time>2023-11-16T10:54:29Z</time>
      </trkpt>
      <trkpt lat="48.65921" lon="7.19786">
        <ele>290.5</ele>
        <time>2023-11-16T10:54:32Z</time>
      </trkpt>
      <trkpt lat="48.65924" lon="7.19782">
        <ele>290.9</ele>
        <time>2023-11-16T10:54:34Z</time>
      </trkpt>
      <trkpt lat="48.65933" lon="7.19756">
        <ele>292.6</ele>
        <time>2023-11-16T10:54:42Z</time>
      </trkpt>
      <trkpt lat="48.65939" lon="7.19751">
        <ele>294.1</ele>
        <time>2023-11-16T10:54:44Z</time>
      </trkpt>
      <trkpt lat="48.65943" lon="7.19745">
        <ele>294.3</ele>
        <time>2023-11-16T10:55:02Z</time>
      </trkpt>
      <trkpt lat="48.65918" lon="7.19773">
        <ele>292</ele>
        <time>2023-11-16T10:55:22Z</time>
      </trkpt>
      <trkpt lat="48.65901" lon="7.19788">
        <ele>290.5</ele>
        <time>2023-11-16T10:55:35Z</time>
      </trkpt>
      <trkpt lat="48.65886" lon="7.19805">
        <ele>291.2</ele>
        <time>2023-11-16T10:55:42Z</time>
      </trkpt>
      <trkpt lat="48.65873" lon="7.19825">
        <ele>291.9</ele>
        <time>2023-11-16T10:55:48Z</time>
      </trkpt>
      <trkpt lat="48.65867" lon="7.19851">
        <ele>292.5</ele>
        <time>2023-11-16T10:55:56Z</time>
      </trkpt>
      <trkpt lat="48.65858" lon="7.19875">
        <ele>292.9</ele>
        <time>2023-11-16T10:56:04Z</time>
      </trkpt>
      <trkpt lat="48.65847" lon="7.199">
        <ele>293.3</ele>
        <time>2023-11-16T10:56:11Z</time>
      </trkpt>
      <trkpt lat="48.65841" lon="7.19928">
        <ele>293.6</ele>
        <time>2023-11-16T10:56:17Z</time>
      </trkpt>
      <trkpt lat="48.65833" lon="7.19955">
        <ele>293.8</ele>
        <time>2023-11-16T10:56:25Z</time>
      </trkpt>
      <trkpt lat="48.65825" lon="7.19982">
        <ele>294</ele>
        <time>2023-11-16T10:56:32Z</time>
      </trkpt>
      <trkpt lat="48.65818" lon="7.2001">
        <ele>294</ele>
        <time>2023-11-16T10:56:39Z</time>
      </trkpt>
      <trkpt lat="48.65808" lon="7.20035">
        <ele>293.7</ele>
        <time>2023-11-16T10:56:46Z</time>
      </trkpt>
      <trkpt lat="48.65798" lon="7.20059">
        <ele>293.3</ele>
        <time>2023-11-16T10:56:53Z</time>
      </trkpt>
      <trkpt lat="48.65773" lon="7.20075">
        <ele>292.8</ele>
        <time>2023-11-16T10:57:00Z</time>
      </trkpt>
      <trkpt lat="48.65752" lon="7.20076">
        <ele>292.3</ele>
        <time>2023-11-16T10:57:07Z</time>
      </trkpt>
      <trkpt lat="48.6574" lon="7.20075">
        <ele>292.1</ele>
        <time>2023-11-16T10:57:11Z</time>
      </trkpt>
      <trkpt lat="48.65744" lon="7.20071">
        <ele>292</ele>
        <time>2023-11-16T10:58:03Z</time>
      </trkpt>
      <trkpt lat="48.65762" lon="7.20059">
        <ele>292.5</ele>
        <time>2023-11-16T10:58:10Z</time>
      </trkpt>
      <trkpt lat="48.6578" lon="7.20044">
        <ele>292.9</ele>
        <time>2023-11-16T10:58:18Z</time>
      </trkpt>
      <trkpt lat="48.65795" lon="7.20024">
        <ele>293.3</ele>
        <time>2023-11-16T10:58:25Z</time>
      </trkpt>
      <trkpt lat="48.65809" lon="7.20005">
        <ele>293.8</ele>
        <time>2023-11-16T10:58:32Z</time>
      </trkpt>
      <trkpt lat="48.65819" lon="7.19979">
        <ele>294</ele>
        <time>2023-11-16T10:58:38Z</time>
      </trkpt>
      <trkpt lat="48.65828" lon="7.1995">
        <ele>293.9</ele>
        <time>2023-11-16T10:58:44Z</time>
      </trkpt>
      <trkpt lat="48.65834" lon="7.19921">
        <ele>293.7</ele>
        <time>2023-11-16T10:58:50Z</time>
      </trkpt>
      <trkpt lat="48.65843" lon="7.19893">
        <ele>293.5</ele>
        <time>2023-11-16T10:58:56Z</time>
      </trkpt>
      <trkpt lat="48.65854" lon="7.1987">
        <ele>293.1</ele>
        <time>2023-11-16T10:59:02Z</time>
      </trkpt>
      <trkpt lat="48.65864" lon="7.19845">
        <ele>292.7</ele>
        <time>2023-11-16T10:59:08Z</time>
      </trkpt>
      <trkpt lat="48.65871" lon="7.19818">
        <ele>292.1</ele>
        <time>2023-11-16T10:59:13Z</time>
      </trkpt>
      <trkpt lat="48.65882" lon="7.19796">
        <ele>291.4</ele>
        <time>2023-11-16T10:59:18Z</time>
      </trkpt>
      <trkpt lat="48.65894" lon="7.19774">
        <ele>290.7</ele>
        <time>2023-11-16T10:59:23Z</time>
      </trkpt>
      <trkpt lat="48.65911" lon="7.19763">
        <ele>292</ele>
        <time>2023-11-16T10:59:29Z</time>
      </trkpt>
      <trkpt lat="48.65928" lon="7.19744">
        <ele>294.3</ele>
        <time>2023-11-16T10:59:43Z</time>
      </trkpt>
      <trkpt lat="48.6594" lon="7.1972">
        <ele>286.7</ele>
        <time>2023-11-16T10:59:50Z</time>
      </trkpt>
      <trkpt lat="48.65943" lon="7.197">
        <ele>285.2</ele>
        <time>2023-11-16T10:59:56Z</time>
      </trkpt>
      <trkpt lat="48.6594" lon="7.197">
        <ele>285</ele>
        <time>2023-11-16T11:00:03Z</time>
      </trkpt>
      <trkpt lat="48.65924" lon="7.19696">
        <ele>283.3</ele>
        <time>2023-11-16T11:00:19Z</time>
      </trkpt>
      <trkpt lat="48.65925" lon="7.19691">
        <ele>283</ele>
        <time>2023-11-16T11:00:21Z</time>
      </trkpt>
      <trkpt lat="48.65944" lon="7.19682">
        <ele>282.8</ele>
        <time>2023-11-16T11:00:28Z</time>
      </trkpt>
      <trkpt lat="48.65961" lon="7.19671">
        <ele>282.6</ele>
        <time>2023-11-16T11:00:36Z</time>
      </trkpt>
      <trkpt lat="48.6597" lon="7.1965">
        <ele>295.7</ele>
        <time>2023-11-16T11:00:45Z</time>
      </trkpt>
      <trkpt lat="48.65974" lon="7.19659">
        <ele>299.3</ele>
        <time>2023-11-16T11:00:48Z</time>
      </trkpt>
      <trkpt lat="48.65985" lon="7.19683">
        <ele>307.4</ele>
        <time>2023-11-16T11:00:55Z</time>
      </trkpt>
      <trkpt lat="48.65986" lon="7.19687">
        <ele>308.5</ele>
        <time>2023-11-16T11:01:00Z</time>
      </trkpt>
      <trkpt lat="48.65982" lon="7.19686">
        <ele>309.4</ele>
        <time>2023-11-16T11:01:02Z</time>
      </trkpt>
      <trkpt lat="48.65969" lon="7.1968">
        <ele>312</ele>
        <time>2023-11-16T11:01:07Z</time>
      </trkpt>
      <trkpt lat="48.65953" lon="7.19665">
        <ele>316</ele>
        <time>2023-11-16T11:01:16Z</time>
      </trkpt>
      <trkpt lat="48.65946" lon="7.19652">
        <ele>318.5</ele>
        <time>2023-11-16T11:01:26Z</time>
      </trkpt>
      <trkpt lat="48.65943" lon="7.19621">
        <ele>323.2</ele>
        <time>2023-11-16T11:01:37Z</time>
      </trkpt>
      <trkpt lat="48.65944" lon="7.19595">
        <ele>326.8</ele>
        <time>2023-11-16T11:01:47Z</time>
      </trkpt>
      <trkpt lat="48.65946" lon="7.19566">
        <ele>330.9</ele>
        <time>2023-11-16T11:02:01Z</time>
      </trkpt>
      <trkpt lat="48.6594" lon="7.19544">
        <ele>334.4</ele>
        <time>2023-11-16T11:02:10Z</time>
      </trkpt>
      <trkpt lat="48.65936" lon="7.19516">
        <ele>338.5</ele>
        <time>2023-11-16T11:02:21Z</time>
      </trkpt>
      <trkpt lat="48.65933" lon="7.19495">
        <ele>341.8</ele>
        <time>2023-11-16T11:02:30Z</time>
      </trkpt>
      <trkpt lat="48.6593" lon="7.19478">
        <ele>344.5</ele>
        <time>2023-11-16T11:02:36Z</time>
      </trkpt>
      <trkpt lat="48.6593" lon="7.19465">
        <ele>346.3</ele>
        <time>2023-11-16T11:02:42Z</time>
      </trkpt>
      <trkpt lat="48.65929" lon="7.19436">
        <ele>350.4</ele>
        <time>2023-11-16T11:02:53Z</time>
      </trkpt>
      <trkpt lat="48.65929" lon="7.19406">
        <ele>354.9</ele>
        <time>2023-11-16T11:03:04Z</time>
      </trkpt>
      <trkpt lat="48.65929" lon="7.19377">
        <ele>359.1</ele>
        <time>2023-11-16T11:03:13Z</time>
      </trkpt>
      <trkpt lat="48.65927" lon="7.19375">
        <ele>359.5</ele>
        <time>2023-11-16T11:03:14Z</time>
      </trkpt>
      <trkpt lat="48.65928" lon="7.1935">
        <ele>363.1</ele>
        <time>2023-11-16T11:03:23Z</time>
      </trkpt>
      <trkpt lat="48.65919" lon="7.19325">
        <ele>367.1</ele>
        <time>2023-11-16T11:03:32Z</time>
      </trkpt>
      <trkpt lat="48.65908" lon="7.19303">
        <ele>371.3</ele>
        <time>2023-11-16T11:03:44Z</time>
      </trkpt>
      <trkpt lat="48.65906" lon="7.19274">
        <ele>375.5</ele>
        <time>2023-11-16T11:03:57Z</time>
      </trkpt>
      <trkpt lat="48.65905" lon="7.19247">
        <ele>379.8</ele>
        <time>2023-11-16T11:04:09Z</time>
      </trkpt>
      <trkpt lat="48.65906" lon="7.19221">
        <ele>383.3</ele>
        <time>2023-11-16T11:04:20Z</time>
      </trkpt>
      <trkpt lat="48.65901" lon="7.19193">
        <ele>380.1</ele>
        <time>2023-11-16T11:04:27Z</time>
      </trkpt>
      <trkpt lat="48.65895" lon="7.19168">
        <ele>377.2</ele>
        <time>2023-11-16T11:04:41Z</time>
      </trkpt>
      <trkpt lat="48.65891" lon="7.19144">
        <ele>379.2</ele>
        <time>2023-11-16T11:04:53Z</time>
      </trkpt>
      <trkpt lat="48.65894" lon="7.19117">
        <ele>382.6</ele>
        <time>2023-11-16T11:05:04Z</time>
      </trkpt>
      <trkpt lat="48.65897" lon="7.19087">
        <ele>386.3</ele>
        <time>2023-11-16T11:05:16Z</time>
      </trkpt>
      <trkpt lat="48.65896" lon="7.1906">
        <ele>389.6</ele>
        <time>2023-11-16T11:05:27Z</time>
      </trkpt>
      <trkpt lat="48.65902" lon="7.19033">
        <ele>392.8</ele>
        <time>2023-11-16T11:05:39Z</time>
      </trkpt>
      <trkpt lat="48.65911" lon="7.19009">
        <ele>395.7</ele>
        <time>2023-11-16T11:05:50Z</time>
      </trkpt>
      <trkpt lat="48.65912" lon="7.18995">
        <ele>397.3</ele>
        <time>2023-11-16T11:05:57Z</time>
      </trkpt>
      <trkpt lat="48.65916" lon="7.18966">
        <ele>400.7</ele>
        <time>2023-11-16T11:06:10Z</time>
      </trkpt>
      <trkpt lat="48.65924" lon="7.18939">
        <ele>404.3</ele>
        <time>2023-11-16T11:06:19Z</time>
      </trkpt>
      <trkpt lat="48.65927" lon="7.18911">
        <ele>408.1</ele>
        <time>2023-11-16T11:06:30Z</time>
      </trkpt>
      <trkpt lat="48.65932" lon="7.18883">
        <ele>411.7</ele>
        <time>2023-11-16T11:06:44Z</time>
      </trkpt>
      <trkpt lat="48.65932" lon="7.18879">
        <ele>412.2</ele>
        <time>2023-11-16T11:06:46Z</time>
      </trkpt>
      <trkpt lat="48.65936" lon="7.18851">
        <ele>416</ele>
        <time>2023-11-16T11:06:59Z</time>
      </trkpt>
      <trkpt lat="48.65938" lon="7.18823">
        <ele>419.5</ele>
        <time>2023-11-16T11:07:12Z</time>
      </trkpt>
      <trkpt lat="48.65944" lon="7.18798">
        <ele>422.5</ele>
        <time>2023-11-16T11:07:23Z</time>
      </trkpt>
      <trkpt lat="48.6595" lon="7.18772">
        <ele>425.7</ele>
        <time>2023-11-16T11:07:35Z</time>
      </trkpt>
      <trkpt lat="48.65957" lon="7.18746">
        <ele>429</ele>
        <time>2023-11-16T11:07:47Z</time>
      </trkpt>
      <trkpt lat="48.65959" lon="7.18733">
        <ele>430.8</ele>
        <time>2023-11-16T11:07:54Z</time>
      </trkpt>
      <trkpt lat="48.65971" lon="7.18711">
        <ele>434</ele>
        <time>2023-11-16T11:08:06Z</time>
      </trkpt>
      <trkpt lat="48.65982" lon="7.18688">
        <ele>437.3</ele>
        <time>2023-11-16T11:08:20Z</time>
      </trkpt>
      <trkpt lat="48.65997" lon="7.18673">
        <ele>440.4</ele>
        <time>2023-11-16T11:08:33Z</time>
      </trkpt>
      <trkpt lat="48.66009" lon="7.18649">
        <ele>444</ele>
        <time>2023-11-16T11:08:44Z</time>
      </trkpt>
      <trkpt lat="48.66019" lon="7.18624">
        <ele>447.5</ele>
        <time>2023-11-16T11:08:56Z</time>
      </trkpt>
      <trkpt lat="48.66028" lon="7.186">
        <ele>450.8</ele>
        <time>2023-11-16T11:09:05Z</time>
      </trkpt>
      <trkpt lat="48.66037" lon="7.18576">
        <ele>454.3</ele>
        <time>2023-11-16T11:09:16Z</time>
      </trkpt>
      <trkpt lat="48.66042" lon="7.18548">
        <ele>458.1</ele>
        <time>2023-11-16T11:09:28Z</time>
      </trkpt>
      <trkpt lat="48.66046" lon="7.18521">
        <ele>461.8</ele>
        <time>2023-11-16T11:09:41Z</time>
      </trkpt>
      <trkpt lat="48.66047" lon="7.1851">
        <ele>463.4</ele>
        <time>2023-11-16T11:09:47Z</time>
      </trkpt>
      <trkpt lat="48.66048" lon="7.18507">
        <ele>463.9</ele>
        <time>2023-11-16T11:09:49Z</time>
      </trkpt>
      <trkpt lat="48.66059" lon="7.18483">
        <ele>467.4</ele>
        <time>2023-11-16T11:10:05Z</time>
      </trkpt>
      <trkpt lat="48.66075" lon="7.18469">
        <ele>470</ele>
        <time>2023-11-16T11:10:14Z</time>
      </trkpt>
      <trkpt lat="48.66091" lon="7.18455">
        <ele>471.5</ele>
        <time>2023-11-16T11:10:25Z</time>
      </trkpt>
      <trkpt lat="48.66106" lon="7.18437">
        <ele>471.7</ele>
        <time>2023-11-16T11:10:36Z</time>
      </trkpt>
      <trkpt lat="48.66124" lon="7.18428">
        <ele>470.3</ele>
        <time>2023-11-16T11:10:43Z</time>
      </trkpt>
      <trkpt lat="48.66143" lon="7.18418">
        <ele>468.3</ele>
        <time>2023-11-16T11:10:51Z</time>
      </trkpt>
      <trkpt lat="48.66145" lon="7.18415">
        <ele>468.1</ele>
        <time>2023-11-16T11:10:53Z</time>
      </trkpt>
      <trkpt lat="48.66149" lon="7.18416">
        <ele>467.8</ele>
        <time>2023-11-16T11:11:06Z</time>
      </trkpt>
      <trkpt lat="48.66167" lon="7.1841">
        <ele>466.3</ele>
        <time>2023-11-16T11:11:14Z</time>
      </trkpt>
      <trkpt lat="48.66186" lon="7.18403">
        <ele>464.9</ele>
        <time>2023-11-16T11:11:23Z</time>
      </trkpt>
      <trkpt lat="48.66204" lon="7.18397">
        <ele>463.6</ele>
        <time>2023-11-16T11:11:30Z</time>
      </trkpt>
      <trkpt lat="48.66222" lon="7.18385">
        <ele>461.6</ele>
        <time>2023-11-16T11:11:38Z</time>
      </trkpt>
      <trkpt lat="48.6623" lon="7.18363">
        <ele>459</ele>
        <time>2023-11-16T11:11:44Z</time>
      </trkpt>
      <trkpt lat="48.66222" lon="7.18338">
        <ele>456.2</ele>
        <time>2023-11-16T11:11:51Z</time>
      </trkpt>
      <trkpt lat="48.66215" lon="7.18311">
        <ele>454.4</ele>
        <time>2023-11-16T11:11:58Z</time>
      </trkpt>
      <trkpt lat="48.66204" lon="7.18288">
        <ele>453.3</ele>
        <time>2023-11-16T11:12:05Z</time>
      </trkpt>
      <trkpt lat="48.66193" lon="7.18266">
        <ele>452.6</ele>
        <time>2023-11-16T11:12:11Z</time>
      </trkpt>
      <trkpt lat="48.66178" lon="7.18247">
        <ele>453.1</ele>
        <time>2023-11-16T11:12:18Z</time>
      </trkpt>
      <trkpt lat="48.66167" lon="7.1822">
        <ele>453.1</ele>
        <time>2023-11-16T11:12:25Z</time>
      </trkpt>
      <trkpt lat="48.66157" lon="7.18194">
        <ele>453.1</ele>
        <time>2023-11-16T11:12:31Z</time>
      </trkpt>
      <trkpt lat="48.66148" lon="7.18169">
        <ele>453.1</ele>
        <time>2023-11-16T11:12:37Z</time>
      </trkpt>
      <trkpt lat="48.66137" lon="7.18146">
        <ele>453.1</ele>
        <time>2023-11-16T11:12:43Z</time>
      </trkpt>
      <trkpt lat="48.66126" lon="7.18121">
        <ele>453.4</ele>
        <time>2023-11-16T11:12:49Z</time>
      </trkpt>
      <trkpt lat="48.66121" lon="7.18091">
        <ele>453.8</ele>
        <time>2023-11-16T11:12:56Z</time>
      </trkpt>
      <trkpt lat="48.66116" lon="7.18065">
        <ele>454.2</ele>
        <time>2023-11-16T11:13:02Z</time>
      </trkpt>
      <trkpt lat="48.66111" lon="7.18036">
        <ele>454.9</ele>
        <time>2023-11-16T11:13:08Z</time>
      </trkpt>
      <trkpt lat="48.66105" lon="7.1801">
        <ele>455.5</ele>
        <time>2023-11-16T11:13:14Z</time>
      </trkpt>
      <trkpt lat="48.66095" lon="7.17984">
        <ele>456.2</ele>
        <time>2023-11-16T11:13:20Z</time>
      </trkpt>
      <trkpt lat="48.66089" lon="7.17956">
        <ele>457</ele>
        <time>2023-11-16T11:13:26Z</time>
      </trkpt>
      <trkpt lat="48.66086" lon="7.17925">
        <ele>457.7</ele>
        <time>2023-11-16T11:13:33Z</time>
      </trkpt>
      <trkpt lat="48.6608" lon="7.17898">
        <ele>457.9</ele>
        <time>2023-11-16T11:13:39Z</time>
      </trkpt>
      <trkpt lat="48.66077" lon="7.17869">
        <ele>457.5</ele>
        <time>2023-11-16T11:13:45Z</time>
      </trkpt>
      <trkpt lat="48.66077" lon="7.1784">
        <ele>457</ele>
        <time>2023-11-16T11:13:51Z</time>
      </trkpt>
      <trkpt lat="48.66081" lon="7.17813">
        <ele>456.5</ele>
        <time>2023-11-16T11:13:57Z</time>
      </trkpt>
      <trkpt lat="48.66087" lon="7.17787">
        <ele>450.7</ele>
        <time>2023-11-16T11:14:03Z</time>
      </trkpt>
      <trkpt lat="48.66098" lon="7.17764">
        <ele>450.9</ele>
        <time>2023-11-16T11:14:09Z</time>
      </trkpt>
      <trkpt lat="48.66112" lon="7.17741">
        <ele>451.3</ele>
        <time>2023-11-16T11:14:16Z</time>
      </trkpt>
      <trkpt lat="48.66123" lon="7.17719">
        <ele>451.7</ele>
        <time>2023-11-16T11:14:22Z</time>
      </trkpt>
      <trkpt lat="48.66135" lon="7.17694">
        <ele>452.3</ele>
        <time>2023-11-16T11:14:29Z</time>
      </trkpt>
      <trkpt lat="48.66146" lon="7.17668">
        <ele>453.1</ele>
        <time>2023-11-16T11:14:35Z</time>
      </trkpt>
      <trkpt lat="48.66156" lon="7.17642">
        <ele>454.1</ele>
        <time>2023-11-16T11:14:42Z</time>
      </trkpt>
      <trkpt lat="48.66166" lon="7.17619">
        <ele>455.1</ele>
        <time>2023-11-16T11:14:48Z</time>
      </trkpt>
      <trkpt lat="48.66176" lon="7.17594">
        <ele>455.6</ele>
        <time>2023-11-16T11:14:55Z</time>
      </trkpt>
      <trkpt lat="48.66184" lon="7.17567">
        <ele>455</ele>
        <time>2023-11-16T11:15:01Z</time>
      </trkpt>
      <trkpt lat="48.66188" lon="7.17539">
        <ele>454</ele>
        <time>2023-11-16T11:15:07Z</time>
      </trkpt>
      <trkpt lat="48.66195" lon="7.17511">
        <ele>452.8</ele>
        <time>2023-11-16T11:15:13Z</time>
      </trkpt>
      <trkpt lat="48.66207" lon="7.17487">
        <ele>451.3</ele>
        <time>2023-11-16T11:15:19Z</time>
      </trkpt>
      <trkpt lat="48.66221" lon="7.17469">
        <ele>450</ele>
        <time>2023-11-16T11:15:25Z</time>
      </trkpt>
      <trkpt lat="48.66234" lon="7.17445">
        <ele>448.7</ele>
        <time>2023-11-16T11:15:32Z</time>
      </trkpt>
      <trkpt lat="48.66246" lon="7.17422">
        <ele>447.3</ele>
        <time>2023-11-16T11:15:39Z</time>
      </trkpt>
      <trkpt lat="48.66261" lon="7.17404">
        <ele>446.1</ele>
        <time>2023-11-16T11:15:46Z</time>
      </trkpt>
      <trkpt lat="48.66278" lon="7.1739">
        <ele>444.7</ele>
        <time>2023-11-16T11:15:53Z</time>
      </trkpt>
      <trkpt lat="48.66297" lon="7.17378">
        <ele>443.1</ele>
        <time>2023-11-16T11:16:00Z</time>
      </trkpt>
      <trkpt lat="48.66315" lon="7.17367">
        <ele>441.6</ele>
        <time>2023-11-16T11:16:07Z</time>
      </trkpt>
      <trkpt lat="48.66333" lon="7.17353">
        <ele>440.4</ele>
        <time>2023-11-16T11:16:14Z</time>
      </trkpt>
      <trkpt lat="48.66349" lon="7.17335">
        <ele>439.3</ele>
        <time>2023-11-16T11:16:22Z</time>
      </trkpt>
      <trkpt lat="48.66352" lon="7.17328">
        <ele>438.9</ele>
        <time>2023-11-16T11:16:25Z</time>
      </trkpt>
      <trkpt lat="48.66377" lon="7.17276">
        <ele>435.4</ele>
        <time>2023-11-16T11:16:55Z</time>
      </trkpt>
      <trkpt lat="48.66391" lon="7.17259">
        <ele>433.8</ele>
        <time>2023-11-16T11:17:02Z</time>
      </trkpt>
      <trkpt lat="48.66407" lon="7.17242">
        <ele>432.3</ele>
        <time>2023-11-16T11:17:08Z</time>
      </trkpt>
      <trkpt lat="48.66423" lon="7.17226">
        <ele>431</ele>
        <time>2023-11-16T11:17:14Z</time>
      </trkpt>
      <trkpt lat="48.66439" lon="7.17209">
        <ele>429.8</ele>
        <time>2023-11-16T11:17:20Z</time>
      </trkpt>
      <trkpt lat="48.66452" lon="7.17187">
        <ele>428.1</ele>
        <time>2023-11-16T11:17:26Z</time>
      </trkpt>
      <trkpt lat="48.66469" lon="7.17173">
        <ele>427</ele>
        <time>2023-11-16T11:17:32Z</time>
      </trkpt>
      <trkpt lat="48.66488" lon="7.17162">
        <ele>426.5</ele>
        <time>2023-11-16T11:17:38Z</time>
      </trkpt>
      <trkpt lat="48.66506" lon="7.17146">
        <ele>426.4</ele>
        <time>2023-11-16T11:17:44Z</time>
      </trkpt>
      <trkpt lat="48.66523" lon="7.17128">
        <ele>426</ele>
        <time>2023-11-16T11:17:51Z</time>
      </trkpt>
      <trkpt lat="48.66541" lon="7.17117">
        <ele>425.5</ele>
        <time>2023-11-16T11:17:57Z</time>
      </trkpt>
      <trkpt lat="48.66562" lon="7.17117">
        <ele>424.7</ele>
        <time>2023-11-16T11:18:03Z</time>
      </trkpt>
      <trkpt lat="48.66581" lon="7.17105">
        <ele>425.2</ele>
        <time>2023-11-16T11:18:09Z</time>
      </trkpt>
      <trkpt lat="48.66599" lon="7.1709">
        <ele>425.8</ele>
        <time>2023-11-16T11:18:16Z</time>
      </trkpt>
      <trkpt lat="48.66617" lon="7.17077">
        <ele>426.5</ele>
        <time>2023-11-16T11:18:23Z</time>
      </trkpt>
      <trkpt lat="48.66636" lon="7.17066">
        <ele>427.5</ele>
        <time>2023-11-16T11:18:30Z</time>
      </trkpt>
      <trkpt lat="48.66655" lon="7.17053">
        <ele>428.6</ele>
        <time>2023-11-16T11:18:37Z</time>
      </trkpt>
      <trkpt lat="48.66675" lon="7.17052">
        <ele>427.9</ele>
        <time>2023-11-16T11:18:44Z</time>
      </trkpt>
      <trkpt lat="48.66692" lon="7.17058">
        <ele>426.9</ele>
        <time>2023-11-16T11:18:51Z</time>
      </trkpt>
      <trkpt lat="48.6671" lon="7.1707">
        <ele>426.9</ele>
        <time>2023-11-16T11:18:58Z</time>
      </trkpt>
      <trkpt lat="48.66727" lon="7.17079">
        <ele>427.3</ele>
        <time>2023-11-16T11:19:03Z</time>
      </trkpt>
      <trkpt lat="48.66743" lon="7.17092">
        <ele>428.1</ele>
        <time>2023-11-16T11:19:09Z</time>
      </trkpt>
      <trkpt lat="48.66759" lon="7.17105">
        <ele>429.4</ele>
        <time>2023-11-16T11:19:16Z</time>
      </trkpt>
      <trkpt lat="48.66776" lon="7.17118">
        <ele>431.3</ele>
        <time>2023-11-16T11:19:24Z</time>
      </trkpt>
      <trkpt lat="48.66792" lon="7.17134">
        <ele>433.6</ele>
        <time>2023-11-16T11:19:32Z</time>
      </trkpt>
      <trkpt lat="48.66805" lon="7.17154">
        <ele>435.9</ele>
        <time>2023-11-16T11:19:40Z</time>
      </trkpt>
      <trkpt lat="48.6682" lon="7.17176">
        <ele>438.5</ele>
        <time>2023-11-16T11:19:49Z</time>
      </trkpt>
      <trkpt lat="48.66835" lon="7.17196">
        <ele>440.9</ele>
        <time>2023-11-16T11:19:57Z</time>
      </trkpt>
      <trkpt lat="48.66853" lon="7.17209">
        <ele>442.9</ele>
        <time>2023-11-16T11:20:04Z</time>
      </trkpt>
      <trkpt lat="48.66869" lon="7.17225">
        <ele>443.6</ele>
        <time>2023-11-16T11:20:12Z</time>
      </trkpt>
      <trkpt lat="48.66879" lon="7.17251">
        <ele>443.7</ele>
        <time>2023-11-16T11:20:20Z</time>
      </trkpt>
      <trkpt lat="48.66891" lon="7.17276">
        <ele>443.9</ele>
        <time>2023-11-16T11:20:28Z</time>
      </trkpt>
      <trkpt lat="48.66902" lon="7.17301">
        <ele>444.2</ele>
        <time>2023-11-16T11:20:36Z</time>
      </trkpt>
      <trkpt lat="48.66912" lon="7.17326">
        <ele>444.5</ele>
        <time>2023-11-16T11:20:44Z</time>
      </trkpt>
      <trkpt lat="48.66925" lon="7.17348">
        <ele>444.8</ele>
        <time>2023-11-16T11:20:51Z</time>
      </trkpt>
      <trkpt lat="48.66939" lon="7.17367">
        <ele>445.1</ele>
        <time>2023-11-16T11:20:57Z</time>
      </trkpt>
      <trkpt lat="48.66952" lon="7.17387">
        <ele>445.6</ele>
        <time>2023-11-16T11:21:03Z</time>
      </trkpt>
      <trkpt lat="48.66963" lon="7.17411">
        <ele>446.6</ele>
        <time>2023-11-16T11:21:11Z</time>
      </trkpt>
      <trkpt lat="48.66978" lon="7.17432">
        <ele>448.2</ele>
        <time>2023-11-16T11:21:20Z</time>
      </trkpt>
      <trkpt lat="48.66991" lon="7.17454">
        <ele>449.7</ele>
        <time>2023-11-16T11:21:28Z</time>
      </trkpt>
      <trkpt lat="48.67003" lon="7.17476">
        <ele>450.7</ele>
        <time>2023-11-16T11:21:35Z</time>
      </trkpt>
      <trkpt lat="48.67015" lon="7.17498">
        <ele>451.3</ele>
        <time>2023-11-16T11:21:42Z</time>
      </trkpt>
      <trkpt lat="48.67031" lon="7.17516">
        <ele>452.8</ele>
        <time>2023-11-16T11:21:50Z</time>
      </trkpt>
      <trkpt lat="48.67047" lon="7.1753">
        <ele>454</ele>
        <time>2023-11-16T11:21:59Z</time>
      </trkpt>
      <trkpt lat="48.67065" lon="7.17546">
        <ele>454.7</ele>
        <time>2023-11-16T11:22:07Z</time>
      </trkpt>
      <trkpt lat="48.67082" lon="7.1756">
        <ele>454.8</ele>
        <time>2023-11-16T11:22:15Z</time>
      </trkpt>
      <trkpt lat="48.67099" lon="7.17574">
        <ele>454.6</ele>
        <time>2023-11-16T11:22:24Z</time>
      </trkpt>
      <trkpt lat="48.67114" lon="7.17575">
        <ele>453.8</ele>
        <time>2023-11-16T11:22:30Z</time>
      </trkpt>
      <trkpt lat="48.67126" lon="7.17552">
        <ele>452.4</ele>
        <time>2023-11-16T11:22:37Z</time>
      </trkpt>
      <trkpt lat="48.67129" lon="7.1755">
        <ele>452.2</ele>
        <time>2023-11-16T11:22:39Z</time>
      </trkpt>
    </trkseg>
  </trk>
</gpx>